Time;durP1;ratioP1;P1;durP2;ratioP2;P2;SDS_P1;SDS_P2;PMS_P1;PMS_P2;Temp;Humidity;BMP_temperature;BMP_pressure;BME280_temperature;BME280_humidity;BME280_pressure;Samples;Min_cycle;Max_cycle;Signal;HPM_P1;HPM_P2
2023/08/14 00:01:47;;;;;;;3.33;1.80;;;;;;;23.44;78.75;100256.41;5109793;28;20252;-63
2023/08/14 00:04:12;;;;;;;4.43;2.00;;;;;;;23.45;78.64;100260.13;5109370;28;20182;-62
2023/08/14 00:06:38;;;;;;;2.87;1.70;;;;;;;23.46;78.57;100274.13;5092427;28;20202;-62
2023/08/14 00:09:03;;;;;;;2.37;1.47;;;;;;;23.46;78.97;100284.81;5089776;28;20166;-62
2023/08/14 00:11:29;;;;;;;2.80;1.87;;;;;;;23.46;78.73;100311.56;5092357;28;20197;-61
2023/08/14 00:13:55;;;;;;;4.27;1.70;;;;;;;23.46;78.81;100326.00;5089920;28;20178;-61
2023/08/14 00:16:21;;;;;;;3.30;2.23;;;;;;;23.47;78.59;100315.25;5055153;28;20211;-62
2023/08/14 00:18:47;;;;;;;2.63;2.00;;;;;;;23.46;78.58;100296.34;5089703;28;20464;-62
2023/08/14 00:21:12;;;;;;;2.70;2.00;;;;;;;23.45;78.83;100300.47;5097007;28;20452;-61
2023/08/14 00:23:38;;;;;;;3.80;2.13;;;;;;;23.44;78.52;100282.34;5104308;28;20185;-62
2023/08/14 00:26:04;;;;;;;4.13;1.60;;;;;;;23.44;78.44;100256.41;5109770;28;20193;-61
2023/08/14 00:28:30;;;;;;;2.60;1.60;;;;;;;23.43;78.50;100257.63;5109799;28;20262;-62
2023/08/14 00:30:55;;;;;;;6.13;2.10;;;;;;;23.45;78.60;100269.59;5093225;28;20190;-61
2023/08/14 00:33:21;;;;;;;2.70;1.80;;;;;;;23.46;78.45;100270.41;5089245;28;20167;-63
2023/08/14 00:35:46;;;;;;;3.50;1.60;;;;;;;23.47;78.50;100280.69;5104945;28;20181;-62
2023/08/14 00:38:12;;;;;;;3.33;1.97;;;;;;;23.45;78.68;100281.13;5105298;28;20218;-62
2023/08/14 00:40:39;;;;;;;4.93;2.00;;;;;;;23.45;78.42;100283.16;5101383;28;20186;-62
2023/08/14 00:43:04;;;;;;;2.87;1.97;;;;;;;23.46;78.69;100288.53;5088225;28;20177;-62
2023/08/14 00:45:29;;;;;;;3.10;2.00;;;;;;;23.46;78.70;100281.94;5087312;28;20436;-61
2023/08/14 00:47:55;;;;;;;4.10;1.77;;;;;;;23.46;78.91;100279.03;5087151;28;20665;-61
2023/08/14 00:50:20;;;;;;;3.10;1.87;;;;;;;23.46;78.62;100270.41;5095375;28;20197;-61
2023/08/14 00:52:46;;;;;;;2.90;2.00;;;;;;;23.45;78.79;100265.88;5086549;28;20321;-62
2023/08/14 00:55:15;;;;;;;3.13;2.00;;;;;;;23.44;78.58;100253.50;5065656;28;20232;-61
2023/08/14 00:57:40;;;;;;;4.50;1.90;;;;;;;23.44;78.65;100244.88;5088113;28;20250;-61
2023/08/14 01:00:37;;;;;;;2.97;2.07;;;;;;;23.44;78.81;100233.34;5091033;27;20440;-62
2023/08/14 01:03:03;;;;;;;4.40;1.83;;;;;;;23.44;78.73;100221.81;5103722;28;20174;-62
2023/08/14 01:05:28;;;;;;;2.60;1.80;;;;;;;23.45;78.63;100214.00;5089139;28;20440;-62
2023/08/14 01:07:53;;;;;;;4.13;1.80;;;;;;;23.45;78.32;100211.97;5090964;28;20182;-62
2023/08/14 01:10:19;;;;;;;3.30;1.87;;;;;;;23.44;78.63;100206.59;5088478;28;20170;-61
2023/08/14 01:12:56;;;;;;;3.63;1.97;;;;;;;23.45;78.53;100206.19;5070663;28;20174;-62
2023/08/14 01:15:43;;;;;;;2.70;1.80;;;;;;;23.44;78.64;100206.59;5089181;28;20303;-61
2023/08/14 01:18:09;;;;;;;3.13;1.83;;;;;;;23.45;78.52;100214.84;5084049;28;20459;-62
2023/08/14 01:20:35;;;;;;;3.20;2.07;;;;;;;23.44;78.46;100218.13;5090410;28;20423;-61
2023/08/14 01:23:33;;;;;;;2.60;1.80;;;;;;;23.44;78.32;100210.28;5081813;28;20799;-62
2023/08/14 01:25:58;;;;;;;3.60;2.07;;;;;;;23.45;78.52;100214.84;5088421;28;20272;-62
2023/08/14 01:28:24;;;;;;;2.20;1.60;;;;;;;23.45;78.33;100214.00;5056452;28;20444;-63
2023/08/14 01:30:49;;;;;;;2.53;1.70;;;;;;;23.45;78.29;100220.59;5069358;28;20170;-62
2023/08/14 01:33:15;;;;;;;4.23;1.77;;;;;;;23.45;78.49;100220.59;5088140;28;20170;-62
2023/08/14 01:35:46;;;;;;;3.53;2.03;;;;;;;23.44;78.53;100224.69;5071400;28;20171;-62
2023/08/14 01:38:29;;;;;;;4.17;1.93;;;;;;;23.45;78.43;100209.06;5089400;28;20629;-62
2023/08/14 01:41:13;;;;;;;4.57;2.30;;;;;;;23.43;78.45;100205.78;5077594;28;20440;-62
2023/08/14 01:43:41;;;;;;;3.10;2.27;;;;;;;23.44;78.42;100209.50;5089540;28;20430;-62
2023/08/14 01:46:08;;;;;;;3.77;2.20;;;;;;;23.44;78.51;100207.41;5069219;28;20452;-61
2023/08/14 01:48:33;;;;;;;3.17;2.00;;;;;;;23.44;78.51;100203.72;5087715;28;20451;-62
2023/08/14 01:50:59;;;;;;;2.60;1.73;;;;;;;23.44;78.54;100206.59;5106683;28;20423;-63
2023/08/14 01:53:24;;;;;;;3.90;2.13;;;;;;;23.44;78.49;100209.50;5085986;28;20189;-62
2023/08/14 01:55:50;;;;;;;4.43;1.93;;;;;;;23.44;78.36;100206.59;5112188;28;20158;-63
2023/08/14 01:58:15;;;;;;;3.27;1.87;;;;;;;23.43;78.48;100211.53;5112118;28;20169;-61
2023/08/14 02:00:40;;;;;;;6.93;2.10;;;;;;;23.43;78.47;100200.00;5108784;28;20186;-61
2023/08/14 02:03:06;;;;;;;3.37;2.40;;;;;;;23.44;78.36;100195.88;5091737;28;20178;-62
2023/08/14 02:05:31;;;;;;;2.70;1.90;;;;;;;23.43;78.43;100191.38;5072092;28;20213;-61
2023/08/14 02:07:57;;;;;;;3.57;2.00;;;;;;;23.43;78.29;100191.38;5101705;28;20648;-61
2023/08/14 02:10:22;;;;;;;2.40;1.70;;;;;;;23.43;78.34;100200.00;5111578;28;20192;-62
2023/08/14 02:12:48;;;;;;;4.43;1.60;;;;;;;23.43;78.29;100205.78;5111627;28;20512;-62
2023/08/14 02:15:13;;;;;;;3.60;1.80;;;;;;;23.44;78.46;100203.72;5119693;27;20245;-62
2023/08/14 02:17:39;;;;;;;3.27;2.17;;;;;;;23.43;78.24;100211.53;5132831;27;20923;-61
2023/08/14 02:20:05;;;;;;;2.60;1.93;;;;;;;23.43;78.61;100204.97;5122156;27;20226;-62
2023/08/14 02:22:30;;;;;;;2.50;1.70;;;;;;;23.41;78.18;100199.63;5111093;28;20176;-62
2023/08/14 02:24:56;;;;;;;3.30;2.17;;;;;;;23.42;78.35;100198.38;5093685;28;20495;-62
2023/08/14 02:27:21;;;;;;;3.47;1.80;;;;;;;23.43;78.23;100188.47;5091439;28;20162;-62
2023/08/14 02:29:47;;;;;;;4.00;2.00;;;;;;;23.42;78.35;100192.59;5090884;28;20154;-62
2023/08/14 02:32:12;;;;;;;2.70;2.00;;;;;;;23.43;78.33;100194.25;5095543;28;20189;-62
2023/08/14 02:34:52;;;;;;;3.97;2.07;;;;;;;23.43;78.34;100193.44;5092893;28;20210;-62
2023/08/14 02:37:18;;;;;;;2.53;2.10;;;;;;;23.42;78.35;100186.84;5112926;27;20504;-61
2023/08/14 02:39:43;;;;;;;3.23;2.00;;;;;;;23.43;78.36;100187.69;5089731;28;20439;-62
2023/08/14 02:42:09;;;;;;;2.73;1.70;;;;;;;23.42;78.13;100175.31;5092545;28;20726;-62
2023/08/14 02:44:35;;;;;;;3.67;2.03;;;;;;;23.41;78.30;100170.81;5091386;28;20202;-61
2023/08/14 02:47:00;;;;;;;3.87;1.87;;;;;;;23.42;78.13;100169.56;5091561;28;20233;-62
2023/08/14 02:49:26;;;;;;;3.10;2.10;;;;;;;23.43;78.34;100164.63;5093640;28;20289;-62
2023/08/14 02:51:52;;;;;;;3.70;2.47;;;;;;;23.42;78.20;100166.69;5091113;28;20171;-63
2023/08/14 02:54:17;;;;;;;3.50;2.17;;;;;;;23.42;78.18;100172.44;5093077;28;20563;-62
2023/08/14 02:56:42;;;;;;;3.17;2.20;;;;;;;23.42;78.29;100163.78;5103019;27;20194;-62
2023/08/14 02:59:08;;;;;;;3.57;2.23;;;;;;;23.42;78.13;100162.97;5080148;28;20188;-62
2023/08/14 03:01:33;;;;;;;3.20;1.90;;;;;;;23.42;77.92;100160.06;5120733;27;20198;-62
2023/08/14 03:03:59;;;;;;;2.90;1.70;;;;;;;23.42;78.13;100158.03;5111236;27;20173;-62
2023/08/14 03:06:24;;;;;;;3.40;2.37;;;;;;;23.42;78.01;100162.97;5098360;28;20185;-62
2023/08/14 03:08:50;;;;;;;4.03;2.40;;;;;;;23.42;78.09;100166.69;5110760;28;20169;-62
2023/08/14 03:11:15;;;;;;;2.80;1.67;;;;;;;23.42;78.35;100171.59;5109632;28;20903;-62
2023/08/14 03:13:41;;;;;;;3.57;2.27;;;;;;;23.42;78.14;100183.97;5092900;28;20175;-62
2023/08/14 03:16:06;;;;;;;2.60;2.07;;;;;;;23.42;78.23;100189.72;5091407;28;20230;-62
2023/08/14 03:18:32;;;;;;;3.27;2.13;;;;;;;23.42;78.41;100192.59;5096985;27;20235;-61
2023/08/14 03:20:57;;;;;;;4.03;2.30;;;;;;;23.43;78.41;100187.69;5112046;27;20193;-62
2023/08/14 03:23:23;;;;;;;5.27;2.37;;;;;;;23.41;78.26;100190.97;5109317;28;20170;-62
2023/08/14 03:25:48;;;;;;;3.03;2.10;;;;;;;23.41;78.37;100190.97;5092159;27;20213;-61
2023/08/14 03:28:14;;;;;;;3.63;2.00;;;;;;;23.42;78.23;100191.78;5112156;27;20219;-62
2023/08/14 03:30:42;;;;;;;3.30;2.10;;;;;;;23.41;78.34;100190.97;5106695;27;20200;-62
2023/08/14 03:33:08;;;;;;;4.10;2.10;;;;;;;23.42;78.39;100186.00;5081210;28;20576;-61
2023/08/14 03:35:33;;;;;;;2.50;1.70;;;;;;;23.41;77.88;100176.56;5090760;28;20427;-62
2023/08/14 03:37:58;;;;;;;3.47;2.47;;;;;;;23.41;78.11;100176.56;5083699;28;20653;-61
2023/08/14 03:40:24;;;;;;;3.40;1.90;;;;;;;23.41;78.17;100176.56;5090091;28;20163;-62
2023/08/14 03:42:49;;;;;;;4.30;2.10;;;;;;;23.42;78.08;100191.78;5092759;28;20186;-62
2023/08/14 03:45:15;;;;;;;4.87;2.37;;;;;;;23.41;78.31;100193.84;5108659;27;20209;-63
2023/08/14 03:47:40;;;;;;;4.73;2.20;;;;;;;23.40;78.40;100195.09;5131477;27;20173;-62
2023/08/14 03:50:06;;;;;;;3.03;2.10;;;;;;;23.42;78.43;100197.53;5114128;27;21045;-61
2023/08/14 03:52:31;;;;;;;3.60;2.30;;;;;;;23.41;78.08;100201.66;5090424;28;20667;-62
2023/08/14 03:54:57;;;;;;;3.80;2.30;;;;;;;23.41;78.40;100201.66;5099081;28;20675;-62
2023/08/14 03:57:22;;;;;;;2.80;1.90;;;;;;;23.41;78.07;100201.66;5093689;28;20669;-62
2023/08/14 03:59:48;;;;;;;2.87;2.03;;;;;;;23.41;78.50;100207.44;5071883;28;20222;-62
2023/08/14 04:02:13;;;;;;;3.60;2.27;;;;;;;23.41;78.21;100214.03;5092397;28;20633;-62
2023/08/14 04:04:39;;;;;;;5.20;2.47;;;;;;;23.40;78.08;100215.28;5089941;28;20703;-62
2023/08/14 04:07:04;;;;;;;3.57;2.30;;;;;;;23.40;78.16;100212.38;5090139;28;20193;-62
2023/08/14 04:09:30;;;;;;;3.40;1.80;;;;;;;23.41;77.96;100213.19;5091929;28;20942;-62
2023/08/14 04:11:55;;;;;;;2.90;2.00;;;;;;;23.41;77.99;100214.03;5090076;28;20217;-62
2023/08/14 04:14:21;;;;;;;2.57;2.00;;;;;;;23.41;78.12;100208.25;5092159;28;20197;-62
2023/08/14 04:16:46;;;;;;;4.10;2.10;;;;;;;23.41;78.18;100204.53;5088786;28;20167;-62
2023/08/14 04:19:13;;;;;;;4.40;2.47;;;;;;;23.40;78.07;100186.44;5083400;27;20652;-62
2023/08/14 04:21:39;;;;;;;5.13;2.70;;;;;;;23.40;78.00;100177.81;5090731;28;20239;-62
2023/08/14 04:24:05;;;;;;;3.13;2.20;;;;;;;23.39;78.00;100164.63;5090216;28;20412;-62
2023/08/14 04:26:30;;;;;;;5.30;2.40;;;;;;;23.39;78.02;100147.31;5090421;28;20178;-62
2023/08/14 04:28:56;;;;;;;3.50;2.13;;;;;;;23.39;77.93;100150.22;5088595;28;20446;-62
2023/08/14 04:31:21;;;;;;;5.87;2.77;;;;;;;23.40;77.76;100142.41;5107406;28;20185;-62
2023/08/14 04:33:47;;;;;;;3.87;2.10;;;;;;;23.39;78.42;100150.22;5106554;27;20184;-62
2023/08/14 04:36:12;;;;;;;3.83;1.90;;;;;;;23.40;78.09;100151.88;5104779;28;20235;-62
2023/08/14 04:38:38;;;;;;;3.17;2.10;;;;;;;23.40;78.04;100133.75;5106013;28;20175;-62
2023/08/14 04:41:03;;;;;;;3.77;1.90;;;;;;;23.40;78.04;100131.72;5105841;28;20186;-62
2023/08/14 04:43:31;;;;;;;3.53;2.17;;;;;;;23.39;77.95;100123.47;5109622;28;20158;-62
2023/08/14 04:45:57;;;;;;;4.20;2.03;;;;;;;23.39;78.04;100141.56;5111754;27;20331;-62
2023/08/14 04:48:22;;;;;;;3.50;2.33;;;;;;;23.39;77.99;100141.56;5093151;28;20507;-62
2023/08/14 04:50:48;;;;;;;4.13;2.37;;;;;;;23.39;78.11;100135.81;5087658;28;20415;-62
2023/08/14 04:53:13;;;;;;;2.97;2.10;;;;;;;23.39;78.22;100141.56;5109263;28;20215;-62
2023/08/14 04:55:39;;;;;;;2.87;1.83;;;;;;;23.39;78.20;100144.44;5107185;28;20182;-63
2023/08/14 04:58:04;;;;;;;2.60;1.93;;;;;;;23.37;78.47;100138.28;5091094;28;20190;-62
2023/08/14 05:00:30;;;;;;;4.00;2.30;;;;;;;23.38;78.24;100116.06;5085281;28;20181;-62
2023/08/14 05:02:55;;;;;;;3.40;2.07;;;;;;;23.38;78.05;100111.13;5094916;27;20177;-62
2023/08/14 05:05:21;;;;;;;2.90;2.13;;;;;;;23.37;77.85;100112.34;5121335;27;20205;-63
2023/08/14 05:07:46;;;;;;;2.37;1.83;;;;;;;23.39;78.10;100123.47;5091055;28;20182;-63
2023/08/14 05:10:12;;;;;;;2.93;2.23;;;;;;;23.39;78.29;100123.47;5089196;28;20178;-62
2023/08/14 05:12:37;;;;;;;3.20;2.13;;;;;;;23.38;78.27;100121.84;5094687;27;20181;-62
2023/08/14 05:15:04;;;;;;;2.67;1.93;;;;;;;23.38;78.20;100122.63;5108843;28;20190;-63
2023/08/14 05:17:29;;;;;;;3.07;2.03;;;;;;;23.39;78.28;100129.22;5107531;28;20237;-62
2023/08/14 05:19:55;;;;;;;3.00;2.20;;;;;;;23.37;78.08;100141.16;5111238;27;20806;-62
2023/08/14 05:22:21;;;;;;;2.53;1.83;;;;;;;23.39;78.05;100143.66;5104129;28;20182;-62
2023/08/14 05:24:47;;;;;;;4.00;2.13;;;;;;;23.37;78.16;100144.06;5088563;28;20194;-62
2023/08/14 05:27:12;;;;;;;2.60;1.80;;;;;;;23.40;77.85;100159.69;5105634;27;20416;-62
2023/08/14 05:29:38;;;;;;;3.00;2.30;;;;;;;23.38;77.94;100148.56;5103157;28;20188;-62
2023/08/14 05:32:04;;;;;;;2.83;2.20;;;;;;;23.39;77.75;100143.66;5088936;28;20173;-62
2023/08/14 05:34:30;;;;;;;2.97;2.10;;;;;;;23.39;77.90;100153.09;5089521;28;20182;-61
2023/08/14 05:36:55;;;;;;;2.93;2.27;;;;;;;23.39;78.04;100153.09;5089224;28;20430;-62
2023/08/14 05:39:21;;;;;;;3.00;2.10;;;;;;;23.40;77.84;100157.63;5088478;28;20169;-62
2023/08/14 05:41:46;;;;;;;3.20;2.40;;;;;;;23.39;78.04;100161.72;5090744;28;20216;-62
2023/08/14 05:44:12;;;;;;;3.60;2.43;;;;;;;23.40;77.99;100168.34;5088337;28;20239;-62
2023/08/14 05:46:37;;;;;;;3.37;2.17;;;;;;;23.39;78.12;100164.63;5099335;28;20181;-62
2023/08/14 05:49:03;;;;;;;3.30;2.30;;;;;;;23.38;78.08;100156.41;5106609;28;20538;-62
2023/08/14 05:51:28;;;;;;;2.90;2.03;;;;;;;23.38;78.34;100162.19;5103696;28;20569;-62
2023/08/14 05:53:54;;;;;;;2.57;2.00;;;;;;;23.39;77.93;100158.84;5129248;28;20188;-63
2023/08/14 05:56:19;;;;;;;4.83;2.60;;;;;;;23.40;78.05;100165.44;5096114;28;20230;-62
2023/08/14 05:58:44;;;;;;;3.87;2.60;;;;;;;23.39;78.36;100161.72;5088319;28;20171;-61
2023/08/14 06:01:10;;;;;;;6.73;2.60;;;;;;;23.37;78.04;100164.22;5095396;28;20213;-63
2023/08/14 06:03:37;;;;;;;4.27;1.97;;;;;;;23.39;77.99;100161.72;5108457;28;20177;-62
2023/08/14 06:06:04;;;;;;;3.53;2.33;;;;;;;23.38;78.30;100165.06;5102875;28;20220;-62
2023/08/14 06:08:29;;;;;;;3.50;2.10;;;;;;;23.39;78.19;100158.84;5087966;28;20887;-62
2023/08/14 06:10:55;;;;;;;3.80;2.40;;;;;;;23.39;77.91;100163.81;5087996;28;20420;-61
2023/08/14 06:13:20;;;;;;;5.00;2.13;;;;;;;23.37;78.47;100163.38;5089369;28;20193;-62
2023/08/14 06:15:46;;;;;;;3.97;2.40;;;;;;;23.39;78.27;100166.69;5086916;28;20174;-63
2023/08/14 06:18:11;;;;;;;2.90;2.20;;;;;;;23.38;78.10;100159.28;5093568;28;20237;-62
2023/08/14 06:20:36;;;;;;;3.03;1.93;;;;;;;23.39;78.20;100149.41;5088834;28;20182;-62
2023/08/14 06:23:02;;;;;;;3.70;2.20;;;;;;;23.39;78.07;100132.91;5107432;28;20166;-62
2023/08/14 06:25:31;;;;;;;6.63;2.53;;;;;;;23.39;77.81;100130.03;5103449;28;20205;-62
2023/08/14 06:27:56;;;;;;;3.50;2.30;;;;;;;23.40;78.05;100125.09;5107870;28;20621;-62
2023/08/14 06:30:23;;;;;;;3.33;2.10;;;;;;;23.39;78.10;100127.16;5101487;28;20435;-63
2023/08/14 06:32:49;;;;;;;3.17;2.17;;;;;;;23.40;78.13;100128.00;5104022;28;21114;-63
2023/08/14 06:35:14;;;;;;;3.67;2.10;;;;;;;23.40;78.22;100131.72;5088338;28;20428;-63
2023/08/14 06:37:40;;;;;;;2.60;2.00;;;;;;;23.40;77.97;100131.72;5087917;28;20163;-64
2023/08/14 06:40:06;;;;;;;2.83;1.70;;;;;;;23.40;77.92;100149.00;5081647;28;20978;-64
2023/08/14 06:42:32;;;;;;;3.13;2.23;;;;;;;23.40;78.16;100154.75;5106540;28;20189;-63
2023/08/14 06:44:57;;;;;;;3.70;2.40;;;;;;;23.38;78.08;100159.28;5091184;28;20462;-63
2023/08/14 06:47:23;;;;;;;2.87;2.27;;;;;;;23.40;78.34;100165.44;5091523;28;20182;-63
2023/08/14 06:49:48;;;;;;;4.20;2.27;;;;;;;23.40;77.82;100156.81;5105020;27;20213;-63
2023/08/14 06:52:13;;;;;;;3.60;2.13;;;;;;;23.40;78.23;100160.53;5072778;28;20181;-63
2023/08/14 06:54:39;;;;;;;5.30;2.23;;;;;;;23.40;78.06;100151.88;5101912;28;20189;-64
2023/08/14 06:57:05;;;;;;;3.93;2.33;;;;;;;23.40;78.41;100153.94;5111823;28;20166;-63
2023/08/14 06:59:30;;;;;;;3.60;2.53;;;;;;;23.40;78.55;100160.53;5109396;28;20268;-63
2023/08/14 07:01:56;;;;;;;3.50;2.40;;;;;;;23.40;78.30;100163.41;5094610;28;20683;-63
2023/08/14 07:04:22;;;;;;;3.67;2.43;;;;;;;23.40;78.40;100160.53;5090835;28;20166;-63
2023/08/14 07:06:47;;;;;;;5.03;2.70;;;;;;;23.39;78.41;100144.44;5074445;28;20556;-63
2023/08/14 07:09:16;;;;;;;4.83;2.60;;;;;;;23.40;78.45;100149.00;5094896;27;20227;-63
2023/08/14 07:11:42;;;;;;;3.07;2.57;;;;;;;23.40;78.67;100149.00;5119986;27;20202;-63
2023/08/14 07:14:07;;;;;;;3.77;2.43;;;;;;;23.39;78.57;100135.81;5101123;27;20430;-63
2023/08/14 07:16:33;;;;;;;3.67;2.47;;;;;;;23.40;78.59;100149.00;5125252;27;20195;-63
2023/08/14 07:18:58;;;;;;;4.13;2.80;;;;;;;23.40;78.57;100136.63;5073088;28;20248;-62
2023/08/14 07:21:24;;;;;;;2.90;2.10;;;;;;;23.41;78.69;100139.09;5109101;28;20543;-63
2023/08/14 07:23:50;;;;;;;4.10;2.10;;;;;;;23.41;78.68;100129.63;5092597;28;20544;-61
2023/08/14 07:26:16;;;;;;;3.93;2.40;;;;;;;23.40;78.70;100131.72;5096296;27;20279;-64
2023/08/14 07:28:41;;;;;;;3.17;2.40;;;;;;;23.41;78.73;100144.88;5090284;28;20421;-63
2023/08/14 07:31:07;;;;;;;4.40;2.67;;;;;;;23.42;78.95;100139.91;5090705;28;20178;-64
2023/08/14 07:33:33;;;;;;;4.47;2.70;;;;;;;23.41;78.96;100153.50;5092781;28;20174;-63
2023/08/14 07:35:58;;;;;;;2.80;2.30;;;;;;;23.41;79.31;100156.41;5072794;28;20243;-63
2023/08/14 07:38:25;;;;;;;4.30;2.33;;;;;;;23.42;79.81;100163.78;5072582;28;20531;-63
2023/08/14 07:40:51;;;;;;;5.40;2.93;;;;;;;23.48;80.70;100164.19;5092463;28;20186;-61
2023/08/14 07:43:17;;;;;;;5.23;2.43;;;;;;;23.48;81.44;100162.13;5090053;28;20404;-63
2023/08/14 07:45:43;;;;;;;6.47;2.70;;;;;;;23.51;81.34;100172.81;5092537;28;20476;-62
2023/08/14 07:48:09;;;;;;;6.20;2.80;;;;;;;23.50;81.48;100165.41;5090282;28;20191;-64
2023/08/14 07:50:34;;;;;;;5.40;3.20;;;;;;;23.49;80.95;100177.34;5101307;28;20434;-64
2023/08/14 07:53:00;;;;;;;7.53;3.20;;;;;;;23.47;80.84;100166.25;5109348;28;20209;-62
2023/08/14 07:55:25;;;;;;;4.10;3.10;;;;;;;23.48;81.13;100179.41;5104230;27;20175;-64
2023/08/14 07:57:51;;;;;;;5.00;3.07;;;;;;;23.49;81.21;100186.00;5095567;28;20911;-63
2023/08/14 08:00:16;;;;;;;7.23;3.30;;;;;;;23.48;80.82;100178.59;5108522;28;20624;-64
2023/08/14 08:02:42;;;;;;;3.77;2.73;;;;;;;23.47;80.86;100177.78;5092312;28;20564;-64
2023/08/14 08:05:08;;;;;;;5.13;2.90;;;;;;;23.48;80.59;100182.28;5089042;28;20195;-64
2023/08/14 08:07:33;;;;;;;4.20;2.47;;;;;;;23.47;80.45;100183.53;5091252;28;20222;-64
2023/08/14 08:09:59;;;;;;;3.83;2.63;;;;;;;23.47;80.59;100195.06;5088898;28;20166;-62
2023/08/14 08:12:24;;;;;;;4.97;3.03;;;;;;;23.47;80.39;100197.94;5089318;28;20240;-61
2023/08/14 08:14:50;;;;;;;3.37;2.43;;;;;;;23.48;80.29;100193.81;5072375;28;20206;-63
2023/08/14 08:17:17;;;;;;;4.47;3.00;;;;;;;23.46;80.66;100199.19;5070503;28;20218;-64
2023/08/14 08:19:42;;;;;;;6.30;2.87;;;;;;;23.46;80.80;100199.19;5099023;28;20182;-64
2023/08/14 08:22:08;;;;;;;5.20;2.57;;;;;;;23.46;80.49;100201.22;5106719;28;20947;-63
2023/08/14 08:24:33;;;;;;;5.43;2.77;;;;;;;23.47;80.66;100195.06;5104184;28;20198;-64
2023/08/14 08:26:58;;;;;;;5.10;2.33;;;;;;;23.47;80.72;100206.59;5088643;28;20186;-63
2023/08/14 08:29:24;;;;;;;3.70;2.50;;;;;;;23.46;80.09;100202.06;5090605;28;20159;-64
2023/08/14 08:31:49;;;;;;;11.13;3.30;;;;;;;23.46;80.00;100199.19;5090048;28;20186;-63
2023/08/14 08:34:15;;;;;;;7.27;2.70;;;;;;;23.44;80.14;100193.00;5091768;28;20178;-63
2023/08/14 08:36:40;;;;;;;6.10;2.93;;;;;;;23.45;79.85;100193.84;5090450;28;20179;-64
2023/08/14 08:39:06;;;;;;;6.07;2.90;;;;;;;23.47;80.34;100192.19;5091257;28;20193;-63
2023/08/14 08:41:32;;;;;;;4.47;2.60;;;;;;;23.47;80.34;100195.06;5072972;28;20170;-63
2023/08/14 08:44:17;;;;;;;8.43;2.60;;;;;;;23.49;80.17;100186.00;5108608;28;20688;-61
2023/08/14 08:46:49;;;;;;;5.43;3.13;;;;;;;23.48;79.88;100190.94;5089337;28;20433;-64
2023/08/14 08:49:14;;;;;;;5.37;2.47;;;;;;;23.47;79.76;100186.41;5097793;28;20451;-64
2023/08/14 08:51:39;;;;;;;5.80;2.70;;;;;;;23.48;79.77;100193.81;5107700;28;20426;-64
2023/08/14 08:54:05;;;;;;;3.80;2.80;;;;;;;23.48;79.71;100193.81;5104165;28;20204;-62
2023/08/14 08:56:30;;;;;;;5.50;2.50;;;;;;;23.48;79.85;100184.38;5108231;28;20158;-63
2023/08/14 08:58:56;;;;;;;9.50;2.43;;;;;;;23.48;79.80;100182.28;5109743;28;20169;-63
2023/08/14 09:01:21;;;;;;;3.73;2.47;;;;;;;23.48;79.70;100182.28;5098983;28;20189;-63
2023/08/14 09:03:47;;;;;;;5.10;2.47;;;;;;;23.48;79.73;100187.25;5107971;28;20191;-64
2023/08/14 09:06:13;;;;;;;4.73;2.70;;;;;;;23.48;79.61;100190.94;5101128;28;20669;-64
2023/08/14 09:08:38;;;;;;;3.63;2.40;;;;;;;23.48;79.71;100190.94;5087497;28;20163;-63
2023/08/14 09:11:04;;;;;;;4.40;2.37;;;;;;;23.50;79.75;100181.88;5087895;28;20162;-63
2023/08/14 09:13:29;;;;;;;7.40;2.73;;;;;;;23.50;79.86;100194.25;5097345;28;20194;-63
2023/08/14 09:15:55;;;;;;;3.10;2.50;;;;;;;23.50;79.57;100193.41;5106146;28;20184;-63
2023/08/14 09:18:20;;;;;;;4.37;2.83;;;;;;;23.51;79.94;100195.88;5099293;28;20233;-64
2023/08/14 09:20:45;;;;;;;6.10;2.50;;;;;;;23.50;79.81;100200.00;5116747;27;20225;-63
2023/08/14 09:23:14;;;;;;;6.27;3.00;;;;;;;23.52;80.03;100203.28;5106142;27;20181;-62
2023/08/14 09:25:40;;;;;;;5.23;2.83;;;;;;;23.52;80.11;100194.63;5107990;28;20201;-62
2023/08/14 09:28:08;;;;;;;4.80;2.80;;;;;;;23.52;80.24;100197.50;5101351;28;20518;-63
2023/08/14 09:30:33;;;;;;;4.43;2.40;;;;;;;23.53;80.34;100209.88;5107957;28;20453;-63
2023/08/14 09:32:59;;;;;;;9.93;3.80;;;;;;;23.53;80.02;100210.69;5084907;28;20436;-63
2023/08/14 09:35:24;;;;;;;3.53;2.83;;;;;;;23.54;80.29;100205.75;5088190;28;20616;-64
2023/08/14 09:37:50;;;;;;;6.70;3.20;;;;;;;23.53;80.30;100209.88;5088646;28;20182;-62
2023/08/14 09:40:16;;;;;;;6.23;3.07;;;;;;;23.53;80.41;100207.78;5070159;28;20185;-63
2023/08/14 09:42:45;;;;;;;3.10;2.23;;;;;;;23.52;80.78;100209.03;5090878;28;20182;-64
2023/08/14 09:45:12;;;;;;;3.20;2.20;;;;;;;23.53;80.71;100216.44;5088480;28;20452;-63
2023/08/14 09:47:39;;;;;;;7.03;3.17;;;;;;;23.52;80.85;100213.97;5089752;28;20546;-63
2023/08/14 09:50:06;;;;;;;6.40;2.20;;;;;;;23.52;80.77;100214.81;5107223;28;20458;-62
2023/08/14 09:52:31;;;;;;;3.53;2.80;;;;;;;23.53;80.90;100232.94;5085302;28;20448;-63
2023/08/14 09:54:57;;;;;;;6.47;3.20;;;;;;;23.53;80.37;100225.09;5108177;28;20423;-64
2023/08/14 09:57:22;;;;;;;4.50;2.50;;;;;;;23.53;80.58;100227.97;5055896;28;20221;-63
2023/08/14 09:59:48;;;;;;;3.90;3.00;;;;;;;23.56;81.16;100232.06;5066119;28;20163;-64
2023/08/14 10:02:15;;;;;;;4.20;2.80;;;;;;;23.58;81.20;100233.31;5104846;28;20178;-63
2023/08/14 10:04:43;;;;;;;5.20;3.20;;;;;;;23.57;81.17;100234.56;5084130;28;20190;-63
2023/08/14 10:07:09;;;;;;;5.00;2.77;;;;;;;23.58;81.60;100233.31;5067273;28;20408;-63
2023/08/14 10:09:34;;;;;;;3.40;2.53;;;;;;;23.59;81.76;100231.25;5094064;28;20934;-66
2023/08/14 10:12:02;;;;;;;4.40;2.90;;;;;;;23.57;81.71;100228.78;5086262;28;20416;-64
2023/08/14 10:14:28;;;;;;;3.10;2.67;;;;;;;23.59;81.72;100232.06;5084940;28;20264;-64
2023/08/14 10:16:53;;;;;;;4.70;3.10;;;;;;;23.60;81.80;100230.00;5090114;28;21084;-64
2023/08/14 10:19:20;;;;;;;5.30;2.80;;;;;;;23.61;81.93;100226.72;5092709;28;20954;-63
2023/08/14 10:21:45;;;;;;;4.47;3.07;;;;;;;23.62;81.66;100233.28;5081440;28;20277;-64
2023/08/14 10:24:11;;;;;;;10.60;3.40;;;;;;;23.62;82.55;100228.34;5091244;28;20427;-63
2023/08/14 10:26:37;;;;;;;3.50;2.80;;;;;;;23.63;82.66;100229.19;5075552;28;20213;-63
2023/08/14 10:29:02;;;;;;;4.10;3.30;;;;;;;23.63;82.36;100220.53;5091308;28;20226;-64
2023/08/14 10:31:28;;;;;;;4.33;2.83;;;;;;;23.64;82.00;100222.19;5093069;28;20166;-64
2023/08/14 10:33:55;;;;;;;4.77;2.77;;;;;;;23.63;82.92;100215.59;5080965;28;20191;-64
2023/08/14 10:36:21;;;;;;;4.60;3.43;;;;;;;23.64;82.93;100219.31;5073459;28;20265;-64
2023/08/14 10:38:46;;;;;;;6.47;3.50;;;;;;;23.64;82.68;100225.88;5092888;27;20427;-64
2023/08/14 10:41:14;;;;;;;3.73;2.90;;;;;;;23.64;82.63;100225.88;5111956;28;20943;-64
2023/08/14 10:43:39;;;;;;;5.50;3.27;;;;;;;23.65;82.57;100227.53;5107699;28;20265;-64
2023/08/14 10:46:14;;;;;;;5.50;3.40;;;;;;;23.67;82.82;100236.56;5111695;28;20465;-63
2023/08/14 10:48:40;;;;;;;5.83;3.10;;;;;;;23.66;83.12;100234.94;5100027;28;20202;-63
2023/08/14 10:51:08;;;;;;;6.60;3.40;;;;;;;23.67;82.91;100229.97;5073821;28;20439;-63
2023/08/14 10:53:33;;;;;;;7.40;3.57;;;;;;;23.67;83.04;100227.94;5110034;28;20400;-64
2023/08/14 10:55:59;;;;;;;5.00;3.20;;;;;;;23.69;82.93;100230.41;5090192;28;20962;-63
2023/08/14 10:58:36;;;;;;;4.00;3.30;;;;;;;23.68;83.56;100228.75;5092792;28;20182;-63
2023/08/14 11:01:04;;;;;;;5.50;3.70;;;;;;;23.70;83.44;100230.00;5089423;28;20231;-61
2023/08/14 11:03:31;;;;;;;5.77;3.77;;;;;;;23.70;83.48;100215.56;5102407;28;21255;-64
2023/08/14 11:05:57;;;;;;;5.07;3.47;;;;;;;23.71;83.22;100211.44;5091253;28;20498;-64
2023/08/14 11:08:22;;;;;;;4.63;3.90;;;;;;;23.71;83.55;100208.56;5101729;28;20447;-64
2023/08/14 11:10:49;;;;;;;6.30;4.20;;;;;;;23.73;83.69;100202.38;5071835;28;20186;-62
2023/08/14 11:13:14;;;;;;;7.07;3.93;;;;;;;23.73;83.12;100203.19;5089989;28;20166;-63
2023/08/14 11:15:40;;;;;;;5.53;3.80;;;;;;;23.72;83.57;100195.78;5089581;28;20423;-65
2023/08/14 11:18:09;;;;;;;7.90;4.00;;;;;;;23.72;83.11;100201.53;5098058;28;20230;-62
2023/08/14 11:20:37;;;;;;;4.70;3.40;;;;;;;23.73;83.72;100200.31;5107228;28;20185;-63